createdAt,value
2023-01-21T00:00:43.101Z,0.99
2023-01-21T00:03:12.950Z,0.96
2023-01-21T00:05:39.727Z,1.01
2023-01-21T00:08:06.227Z,0.90
2023-01-21T00:10:32.729Z,0.89
2023-01-21T00:12:59.275Z,0.92
2023-01-21T00:15:25.931Z,0.91
2023-01-21T00:17:53.568Z,0.89
2023-01-21T00:20:20.165Z,0.92
2023-01-21T00:22:46.647Z,0.93
2023-01-21T00:25:13.164Z,0.95
2023-01-21T00:27:39.883Z,0.93
2023-01-21T00:30:06.895Z,0.96
2023-01-21T00:32:33.413Z,0.88
2023-01-21T00:34:59.902Z,0.88
2023-01-21T00:37:26.513Z,0.88
2023-01-21T00:39:53.022Z,0.96
2023-01-21T00:42:19.554Z,1.00
2023-01-21T00:44:46.066Z,0.94
2023-01-21T00:47:12.557Z,0.96
2023-01-21T00:49:39.144Z,1.00
2023-01-21T00:52:05.750Z,0.96
2023-01-21T00:54:32.432Z,1.00
2023-01-21T00:56:59.256Z,1.01
2023-01-21T00:59:28.116Z,1.01
2023-01-21T01:01:55.087Z,1.05
2023-01-21T01:04:22.968Z,1.03
2023-01-21T01:06:49.487Z,1.03
2023-01-21T01:09:15.998Z,1.00
2023-01-21T01:11:42.508Z,1.01
2023-01-21T01:14:09.175Z,1.04
2023-01-21T01:16:35.717Z,1.02
2023-01-21T01:19:02.197Z,0.98
2023-01-21T01:21:28.777Z,1.00
2023-01-21T01:23:55.731Z,0.99
2023-01-21T01:26:22.674Z,1.00
2023-01-21T01:28:49.299Z,1.00
2023-01-21T01:31:17.777Z,1.00
2023-01-21T01:33:44.368Z,0.97
2023-01-21T01:36:14.923Z,1.05
2023-01-21T01:38:41.645Z,1.11
2023-01-21T01:41:08.952Z,1.11
2023-01-21T01:44:05.755Z,1.15
2023-01-21T01:46:34.842Z,1.15
2023-01-21T01:49:05.936Z,1.15
2023-01-21T01:52:03.577Z,1.11
2023-01-21T01:54:36.403Z,1.10
2023-01-21T01:57:05.809Z,1.16
2023-01-21T01:59:33.114Z,1.10
2023-01-21T02:02:23.088Z,1.14
2023-01-21T02:04:58.916Z,1.11
2023-01-21T02:07:26.907Z,1.12
2023-01-21T02:09:53.863Z,1.08
2023-01-21T02:12:20.618Z,1.09
2023-01-21T02:14:47.444Z,1.06
2023-01-21T02:17:26.681Z,1.08
2023-01-21T02:20:18.744Z,1.08
2023-01-21T02:22:59.373Z,1.06
2023-01-21T02:25:47.697Z,1.05
2023-01-21T02:28:47.902Z,1.03
2023-01-21T02:31:55.218Z,1.08
2023-01-21T02:34:31.505Z,1.12
2023-01-21T02:37:07.221Z,1.12
2023-01-21T02:39:56.718Z,1.13
2023-01-21T02:42:35.496Z,1.14
2023-01-21T02:45:24.929Z,1.19
2023-01-21T02:48:08.531Z,1.19
2023-01-21T02:50:48.056Z,1.19
2023-01-21T02:53:27.348Z,1.20
2023-01-21T02:55:54.475Z,1.19
2023-01-21T02:58:32.056Z,1.23
2023-01-21T03:01:43.260Z,1.22
2023-01-21T03:04:37.490Z,1.22
2023-01-21T03:07:27.379Z,1.21
2023-01-21T03:09:58.291Z,1.18
2023-01-21T03:12:28.974Z,1.09
2023-01-21T03:15:45.594Z,1.17
2023-01-21T03:18:17.707Z,1.16
2023-01-21T03:20:47.774Z,1.21
2023-01-21T03:23:24.315Z,1.24
2023-01-21T03:25:51.007Z,1.29
2023-01-21T03:28:21.910Z,1.30
2023-01-21T03:30:55.408Z,1.31
2023-01-21T03:33:22.919Z,1.33
2023-01-21T03:35:52.123Z,1.32
2023-01-21T03:38:25.089Z,1.35
2023-01-21T03:40:56.617Z,1.33
2023-01-21T03:43:23.136Z,1.37
2023-01-21T03:45:55.557Z,1.38
2023-01-21T03:48:28.670Z,1.41
2023-01-21T03:51:05.425Z,1.44
2023-01-21T03:53:31.960Z,1.46
2023-01-21T03:55:59.966Z,1.41
2023-01-21T03:58:27.555Z,1.44
2023-01-21T04:00:54.211Z,1.45
2023-01-21T04:03:20.807Z,1.43
2023-01-21T04:05:47.355Z,1.44
2023-01-21T04:08:13.886Z,1.43
2023-01-21T04:10:40.418Z,1.39
2023-01-21T04:13:07.048Z,1.39
2023-01-21T04:15:33.579Z,1.37
2023-01-21T04:18:00.189Z,1.42
2023-01-21T04:20:26.668Z,1.39
2023-01-21T04:22:53.359Z,1.38
2023-01-21T04:25:20.104Z,1.42
2023-01-21T04:27:46.620Z,1.40
2023-01-21T04:30:13.360Z,1.43
2023-01-21T04:32:40.097Z,1.44
2023-01-21T04:35:07.104Z,1.43
2023-01-21T04:37:33.866Z,1.42
2023-01-21T04:40:00.381Z,1.43
2023-01-21T04:42:26.909Z,1.45
2023-01-21T04:44:53.450Z,1.51
2023-01-21T04:47:19.949Z,1.48
2023-01-21T04:49:48.741Z,1.48
2023-01-21T04:52:15.307Z,1.49
2023-01-21T04:54:41.872Z,1.50
2023-01-21T04:57:08.404Z,1.48
2023-01-21T04:59:35.066Z,1.37
2023-01-21T05:02:01.611Z,1.42
2023-01-21T05:04:28.242Z,1.44
2023-01-21T05:06:55.748Z,1.44
2023-01-21T05:09:22.314Z,1.44
2023-01-21T05:11:48.977Z,1.40
2023-01-21T05:14:15.498Z,1.42
2023-01-21T05:16:42.062Z,1.44
2023-01-21T05:19:08.624Z,1.40
2023-01-21T05:21:35.155Z,1.40
2023-01-21T05:24:02.155Z,1.41
2023-01-21T05:26:28.747Z,1.38
2023-01-21T05:28:55.249Z,1.34
2023-01-21T05:31:21.813Z,1.32
2023-01-21T05:33:48.669Z,1.27
2023-01-21T05:36:15.164Z,1.28
2023-01-21T05:38:41.691Z,1.31
2023-01-21T05:41:08.361Z,1.33
2023-01-21T05:43:34.923Z,1.29
2023-01-21T05:46:01.709Z,1.41
2023-01-21T05:48:29.551Z,1.38
2023-01-21T05:50:58.283Z,1.43
2023-01-21T05:53:25.368Z,1.45
2023-01-21T05:55:53.694Z,1.43
2023-01-21T05:58:20.842Z,1.44
2023-01-21T06:00:48.528Z,1.44
2023-01-21T06:03:16.064Z,1.50
2023-01-21T06:05:43.092Z,1.59
2023-01-21T06:08:10.721Z,1.62
2023-01-21T06:10:37.667Z,1.70
2023-01-21T06:13:04.252Z,1.71
2023-01-21T06:15:33.574Z,1.67
2023-01-21T06:18:01.320Z,1.69
2023-01-21T06:20:30.526Z,1.70
2023-01-21T06:22:58.124Z,1.77
2023-01-21T06:25:25.631Z,1.74
2023-01-21T06:27:55.505Z,1.78
2023-01-21T06:30:22.999Z,1.78
2023-01-21T06:32:49.497Z,1.79
2023-01-21T06:35:16.153Z,1.83
2023-01-21T06:37:42.756Z,1.85
2023-01-21T06:40:10.358Z,1.83
2023-01-21T06:42:36.871Z,1.83
2023-01-21T06:45:03.987Z,1.80
2023-01-21T06:47:30.962Z,1.83
2023-01-21T06:49:57.954Z,1.85
2023-01-21T06:52:24.434Z,1.86
2023-01-21T06:54:50.965Z,1.85
2023-01-21T06:57:17.461Z,1.84
2023-01-21T06:59:44.010Z,1.85
2023-01-21T07:02:12.800Z,1.85
2023-01-21T07:04:39.504Z,1.83
2023-01-21T07:07:06.066Z,1.82
2023-01-21T07:09:32.591Z,1.84
2023-01-21T07:11:59.089Z,1.85
2023-01-21T07:14:25.626Z,1.84
2023-01-21T07:16:52.123Z,1.76
2023-01-21T07:19:21.398Z,1.79
2023-01-21T07:21:47.843Z,1.78
2023-01-21T07:24:14.346Z,1.79
2023-01-21T07:26:41.956Z,1.78
2023-01-21T07:29:09.153Z,1.78
2023-01-21T07:31:35.939Z,1.78
2023-01-21T07:34:03.044Z,1.79
2023-01-21T07:36:29.644Z,1.74
2023-01-21T07:38:56.207Z,1.75
2023-01-21T07:41:22.960Z,1.74
2023-01-21T07:43:50.486Z,1.79
2023-01-21T07:46:18.175Z,1.83
2023-01-21T07:48:44.682Z,1.82
2023-01-21T07:51:11.256Z,1.80
2023-01-21T07:53:37.763Z,1.81
2023-01-21T07:56:07.881Z,1.86
2023-01-21T07:58:34.440Z,1.83
2023-01-21T08:01:03.895Z,1.88
2023-01-21T08:03:30.370Z,1.90
2023-01-21T08:05:56.867Z,1.94
2023-01-21T08:08:23.351Z,1.96
2023-01-21T08:10:56.353Z,1.96
2023-01-21T08:13:23.327Z,1.98
2023-01-21T08:15:51.286Z,1.99
2023-01-21T08:18:18.215Z,1.98
2023-01-21T08:20:44.980Z,1.95
2023-01-21T08:23:11.627Z,2.01
2023-01-21T08:25:38.574Z,2.06
2023-01-21T08:28:05.310Z,2.10
2023-01-21T08:30:32.001Z,2.11
2023-01-21T08:32:58.619Z,2.16
2023-01-21T08:35:25.284Z,2.16
2023-01-21T08:37:54.576Z,2.22
2023-01-21T08:40:21.069Z,2.22
2023-01-21T08:42:47.564Z,2.22
2023-01-21T08:45:15.456Z,2.27
2023-01-21T08:47:42.065Z,2.30
2023-01-21T08:50:09.827Z,2.31
2023-01-21T08:52:36.371Z,2.35
2023-01-21T08:55:02.891Z,2.38
2023-01-21T08:57:29.945Z,2.41
2023-01-21T08:59:56.748Z,2.45
2023-01-21T09:02:23.683Z,2.48
2023-01-21T09:04:50.690Z,2.47
2023-01-21T09:07:17.331Z,2.48
2023-01-21T09:09:44.059Z,2.51
2023-01-21T09:12:10.626Z,2.51
2023-01-21T09:14:37.493Z,2.57
2023-01-21T09:17:04.152Z,2.65
2023-01-21T09:19:31.078Z,2.65
2023-01-21T09:21:57.818Z,2.71
2023-01-21T09:24:25.215Z,2.70
2023-01-21T09:26:52.458Z,2.75
2023-01-21T09:29:19.272Z,2.78
2023-01-21T09:31:46.149Z,2.79
2023-01-21T09:34:13.018Z,2.71
2023-01-21T09:36:39.667Z,2.79
2023-01-21T09:39:07.919Z,2.81
2023-01-21T09:41:45.641Z,2.79
2023-01-21T09:44:21.135Z,2.87
2023-01-21T09:47:11.284Z,2.92
2023-01-21T09:49:41.655Z,2.94
2023-01-21T09:52:27.196Z,2.99
2023-01-21T09:54:55.187Z,3.01
2023-01-21T09:57:39.470Z,3.08
2023-01-21T10:00:15.670Z,3.09
2023-01-21T10:03:04.711Z,3.12
2023-01-21T10:05:50.338Z,3.15
2023-01-21T10:08:29.336Z,3.20
2023-01-21T10:11:34.108Z,3.14
2023-01-21T10:14:07.089Z,3.16
2023-01-21T10:16:55.834Z,3.20
2023-01-21T10:19:39.803Z,3.18
2023-01-21T10:22:13.059Z,3.19
2023-01-21T10:24:46.212Z,3.21
2023-01-21T10:27:16.902Z,3.30
2023-01-21T10:29:43.648Z,3.31
2023-01-21T10:32:15.172Z,3.31
2023-01-21T10:34:50.213Z,3.39
2023-01-21T10:37:29.460Z,3.42
2023-01-21T10:40:02.168Z,3.44
2023-01-21T10:42:51.234Z,3.40
2023-01-21T10:45:28.258Z,3.38
2023-01-21T10:48:15.943Z,3.42
2023-01-21T10:51:06.328Z,3.44
2023-01-21T10:53:44.505Z,3.45
2023-01-21T10:56:29.194Z,3.48
2023-01-21T10:59:05.877Z,3.48
2023-01-21T11:01:36.356Z,3.59
2023-01-21T11:04:14.578Z,3.65
2023-01-21T11:06:41.287Z,3.72
2023-01-21T11:09:11.471Z,3.75
2023-01-21T11:11:40.721Z,3.77
2023-01-21T11:14:08.068Z,3.85
2023-01-21T11:16:49.661Z,3.87
2023-01-21T11:19:30.492Z,3.89
2023-01-21T11:22:09.180Z,3.93
2023-01-21T11:24:47.114Z,4.00
2023-01-21T11:27:21.473Z,4.12
2023-01-21T11:29:49.508Z,4.10
2023-01-21T11:32:24.313Z,4.17
2023-01-21T11:35:00.973Z,4.24
2023-01-21T11:37:29.283Z,4.33
2023-01-21T11:39:58.703Z,4.40
2023-01-21T11:42:25.331Z,4.33
2023-01-21T11:44:54.739Z,4.38
2023-01-21T11:47:51.295Z,4.43
2023-01-21T11:50:35.354Z,4.46
2023-01-21T11:55:47.428Z,4.51
2023-01-21T11:58:30.445Z,4.50
2023-01-21T12:01:06.833Z,4.52
2023-01-21T12:03:37.710Z,4.47
2023-01-21T12:06:06.918Z,4.47
2023-01-21T12:08:35.890Z,4.49
2023-01-21T12:11:03.732Z,4.51
2023-01-21T12:14:05.687Z,4.50
2023-01-21T12:16:37.571Z,4.47
2023-01-21T12:19:26.607Z,4.46
2023-01-21T12:22:01.759Z,4.54
2023-01-21T12:24:49.947Z,4.51
2023-01-21T12:27:19.392Z,4.50
2023-01-21T12:29:56.374Z,4.46
2023-01-21T12:32:40.921Z,4.55
2023-01-21T12:35:12.923Z,4.61
2023-01-21T12:37:54.164Z,4.61
2023-01-21T12:40:46.100Z,4.59
2023-01-21T12:43:20.055Z,4.69
2023-01-21T12:45:51.557Z,4.61
2023-01-21T12:48:24.287Z,4.60
2023-01-21T12:50:59.370Z,4.62
2023-01-21T12:53:49.426Z,4.63
2023-01-21T12:56:44.778Z,4.66
2023-01-21T12:59:19.717Z,4.68
2023-01-21T13:01:52.343Z,4.68
2023-01-21T13:04:45.835Z,4.66
2023-01-21T13:07:26.878Z,4.71
2023-01-21T13:10:03.423Z,4.68
2023-01-21T13:12:31.518Z,4.71
2023-01-21T13:15:16.962Z,4.67
2023-01-21T13:17:49.533Z,4.68
2023-01-21T13:20:21.120Z,4.66
2023-01-21T13:22:57.231Z,4.73
2023-01-21T13:25:44.839Z,4.63
2023-01-21T13:28:38.519Z,4.62
2023-01-21T13:31:15.286Z,4.57
2023-01-21T13:33:55.107Z,4.55
2023-01-21T13:36:59.170Z,4.57
2023-01-21T13:39:28.703Z,4.62
2023-01-21T13:42:32.574Z,4.61
2023-01-21T13:45:22.283Z,4.53
2023-01-21T13:48:10.574Z,4.60
2023-01-21T13:51:00.031Z,4.59
2023-01-21T13:53:44.340Z,4.55
2023-01-21T13:56:45.334Z,4.48
2023-01-21T13:59:21.066Z,4.53
2023-01-21T14:01:49.757Z,4.58
2023-01-21T14:04:43.174Z,4.57
2023-01-21T14:07:19.091Z,4.58
2023-01-21T14:10:02.401Z,4.59
2023-01-21T14:12:52.586Z,4.46
2023-01-21T14:15:26.660Z,4.51
2023-01-21T14:18:19.791Z,4.51
2023-01-21T14:21:08.224Z,4.44
2023-01-21T14:23:44.184Z,4.42
2023-01-21T14:26:29.435Z,4.34
2023-01-21T14:29:06.705Z,4.37
2023-01-21T14:31:37.454Z,4.34
2023-01-21T14:34:10.265Z,4.38
2023-01-21T14:36:41.768Z,4.52
2023-01-21T14:39:29.204Z,4.44
2023-01-21T14:42:04.769Z,4.37
2023-01-21T14:44:45.635Z,4.40
2023-01-21T14:47:28.749Z,4.39
2023-01-21T14:49:57.210Z,4.36
2023-01-21T14:52:43.254Z,4.51
2023-01-21T14:55:30.046Z,4.43
2023-01-21T14:57:57.476Z,4.49
2023-01-21T15:00:29.243Z,4.47
2023-01-21T15:03:13.475Z,4.48
2023-01-21T15:05:41.166Z,4.48
2023-01-21T15:08:24.140Z,4.48
2023-01-21T15:10:53.891Z,4.46
2023-01-21T15:13:47.364Z,4.41
2023-01-21T15:16:34.187Z,4.14
2023-01-21T15:19:09.940Z,4.28
2023-01-21T15:21:36.411Z,4.29
2023-01-21T15:24:18.982Z,4.23
2023-01-21T15:27:13.399Z,4.25
2023-01-21T15:29:55.275Z,4.22
2023-01-21T15:32:31.350Z,4.17
2023-01-21T15:35:19.911Z,4.19
2023-01-21T15:37:49.331Z,4.08
2023-01-21T15:40:18.575Z,3.89
2023-01-21T15:42:53.376Z,3.91
2023-01-21T15:45:47.696Z,3.72
2023-01-21T15:48:18.226Z,3.80
2023-01-21T15:50:55.206Z,3.76
2023-01-21T15:53:29.446Z,3.58
2023-01-21T15:56:24.349Z,3.57
2023-01-21T15:59:16.507Z,3.45
2023-01-21T16:01:43.232Z,3.19
2023-01-21T16:04:27.590Z,3.17
2023-01-21T16:07:15.689Z,3.20
2023-01-21T16:10:08.901Z,3.25
2023-01-21T16:13:05.266Z,3.25
2023-01-21T16:15:54.121Z,3.13
2023-01-21T16:18:38.010Z,2.99
2023-01-21T16:21:04.705Z,2.93
2023-01-21T16:23:36.536Z,2.97
2023-01-21T16:26:03.699Z,2.90
2023-01-21T16:28:49.873Z,2.87
2023-01-21T16:31:16.747Z,2.87
2023-01-21T16:33:43.513Z,2.87
2023-01-21T16:36:14.077Z,2.77
2023-01-21T16:38:42.276Z,2.78
2023-01-21T16:41:08.796Z,2.74
2023-01-21T16:43:38.723Z,2.77
2023-01-21T16:46:11.965Z,2.74
2023-01-21T16:48:38.665Z,2.70
2023-01-21T16:51:05.502Z,2.68
2023-01-21T16:53:32.416Z,2.79
2023-01-21T16:55:59.575Z,2.84
2023-01-21T16:58:29.614Z,2.72
2023-01-21T17:01:10.505Z,2.66
2023-01-21T17:03:37.845Z,2.56
2023-01-21T17:06:09.004Z,2.52
2023-01-21T17:08:36.459Z,2.46
2023-01-21T17:11:08.106Z,2.41
2023-01-21T17:13:41.558Z,2.36
2023-01-21T17:16:30.540Z,2.29
2023-01-21T17:19:00.128Z,2.30
2023-01-21T17:21:34.355Z,2.39
2023-01-21T17:24:04.663Z,2.37
2023-01-21T17:26:34.821Z,2.33
2023-01-21T17:29:18.637Z,2.34
2023-01-21T17:31:46.266Z,2.36
2023-01-21T17:34:15.657Z,2.31
2023-01-21T17:36:44.521Z,2.23
2023-01-21T17:39:11.549Z,2.30
2023-01-21T17:41:41.062Z,2.30
2023-01-21T17:44:24.483Z,2.28
2023-01-21T17:46:54.717Z,2.28
2023-01-21T17:49:23.403Z,2.24
2023-01-21T17:51:52.684Z,2.30
2023-01-21T17:54:26.367Z,2.30
2023-01-21T17:56:55.074Z,2.32
2023-01-21T17:59:31.341Z,2.22
2023-01-21T18:01:58.049Z,2.21
2023-01-21T18:04:24.765Z,2.21
2023-01-21T18:06:52.807Z,2.26
2023-01-21T18:09:20.758Z,2.27
2023-01-21T18:11:48.470Z,2.28
2023-01-21T18:14:20.599Z,2.28
2023-01-21T18:16:47.664Z,2.28
2023-01-21T18:19:31.436Z,2.31
2023-01-21T18:21:58.782Z,2.37
2023-01-21T18:24:25.798Z,2.39
2023-01-21T18:26:52.704Z,2.40
2023-01-21T18:29:21.780Z,2.35
2023-01-21T18:31:50.723Z,2.31
2023-01-21T18:34:18.105Z,2.33
2023-01-21T18:36:44.791Z,2.39
2023-01-21T18:39:21.389Z,2.38
2023-01-21T18:41:48.011Z,2.38
2023-01-21T18:44:14.928Z,2.44
2023-01-21T18:46:43.221Z,2.44
2023-01-21T18:49:19.354Z,2.39
2023-01-21T18:51:46.502Z,2.33
2023-01-21T18:54:14.247Z,2.36
2023-01-21T18:56:42.439Z,2.39
2023-01-21T18:59:12.499Z,2.33
2023-01-21T19:01:39.269Z,2.36
2023-01-21T19:04:09.551Z,2.36
2023-01-21T19:06:36.560Z,2.40
2023-01-21T19:09:03.638Z,2.44
2023-01-21T19:11:30.240Z,2.40
2023-01-21T19:13:56.815Z,2.38
2023-01-21T19:16:23.453Z,2.36
2023-01-21T19:18:50.310Z,2.38
2023-01-21T19:21:16.940Z,2.40
2023-01-21T19:23:43.599Z,2.38
2023-01-21T19:26:13.067Z,2.44
2023-01-21T19:28:39.632Z,2.44
2023-01-21T19:31:06.369Z,2.37
2023-01-21T19:33:32.985Z,2.37
2023-01-21T19:36:03.270Z,2.38
2023-01-21T19:38:30.176Z,2.39
2023-01-21T19:40:56.841Z,2.40
2023-01-21T19:43:23.521Z,2.40
2023-01-21T19:45:51.533Z,2.41
2023-01-21T19:48:19.559Z,2.38
2023-01-21T19:50:46.400Z,2.38
2023-01-21T19:53:15.254Z,2.38
2023-01-21T19:55:42.475Z,2.40
2023-01-21T19:58:29.242Z,2.38
2023-01-21T20:00:56.130Z,2.41
2023-01-21T20:03:24.610Z,2.41
2023-01-21T20:05:58.517Z,2.43
2023-01-21T20:08:27.660Z,2.46
2023-01-21T20:10:54.231Z,2.39
2023-01-21T20:13:20.937Z,2.40
2023-01-21T20:15:48.726Z,2.41
2023-01-21T20:18:33.624Z,2.40
2023-01-21T20:21:00.155Z,2.39
2023-01-21T20:23:26.890Z,2.40
2023-01-21T20:25:55.502Z,2.39
2023-01-21T20:28:24.932Z,2.43
2023-01-21T20:30:52.682Z,2.42
2023-01-21T20:33:21.402Z,2.44
2023-01-21T20:35:49.875Z,2.44
2023-01-21T20:38:21.769Z,2.48
2023-01-21T20:40:48.321Z,2.52
2023-01-21T20:43:16.073Z,2.49
2023-01-21T20:45:46.670Z,2.52
2023-01-21T20:48:22.966Z,2.57
2023-01-21T20:50:51.156Z,2.54
2023-01-21T20:53:17.753Z,2.63
2023-01-21T20:55:46.560Z,2.65
2023-01-21T20:58:14.357Z,2.67
2023-01-21T21:00:41.363Z,2.70
2023-01-21T21:03:07.940Z,2.63
2023-01-21T21:05:34.518Z,2.66
2023-01-21T21:08:01.053Z,2.69
2023-01-21T21:10:36.255Z,2.72
2023-01-21T21:13:03.874Z,2.75
2023-01-21T21:15:31.902Z,2.71
2023-01-21T21:17:59.316Z,2.75
2023-01-21T21:20:28.323Z,2.74
2023-01-21T21:22:54.942Z,2.72
2023-01-21T21:25:23.578Z,2.73
2023-01-21T21:27:50.195Z,2.72
2023-01-21T21:30:37.017Z,2.73
2023-01-21T21:33:03.798Z,2.75
2023-01-21T21:35:35.828Z,2.76
2023-01-21T21:38:08.092Z,2.84
2023-01-21T21:40:37.507Z,2.84
2023-01-21T21:43:22.647Z,2.83
2023-01-21T21:46:08.093Z,2.82
2023-01-21T21:48:46.086Z,2.88
2023-01-21T21:51:14.673Z,2.88
2023-01-21T21:53:41.717Z,2.79
2023-01-21T21:56:10.952Z,2.77
2023-01-21T21:58:37.637Z,2.82
2023-01-21T22:01:15.588Z,2.73
2023-01-21T22:03:42.281Z,2.80
2023-01-21T22:06:09.629Z,2.80
2023-01-21T22:08:38.020Z,2.79
2023-01-21T22:11:06.381Z,2.77
2023-01-21T22:13:38.019Z,2.73
2023-01-21T22:16:04.964Z,2.76
2023-01-21T22:18:33.032Z,2.79
2023-01-21T22:21:04.970Z,2.81
2023-01-21T22:23:32.756Z,2.79
2023-01-21T22:26:01.984Z,2.78
2023-01-21T22:28:28.659Z,2.83
2023-01-21T22:30:55.632Z,2.83
2023-01-21T22:33:22.385Z,2.79
2023-01-21T22:35:48.979Z,2.82
2023-01-21T22:38:15.552Z,2.84
2023-01-21T22:40:42.100Z,2.83
2023-01-21T22:43:09.269Z,2.84
2023-01-21T22:45:35.888Z,2.82
2023-01-21T22:48:02.429Z,2.78
2023-01-21T22:50:29.115Z,2.81
2023-01-21T22:52:56.576Z,2.84
2023-01-21T22:55:23.236Z,2.82
2023-01-21T22:57:49.823Z,2.80
2023-01-21T23:00:33.818Z,2.83
2023-01-21T23:03:00.459Z,2.85
2023-01-21T23:05:28.496Z,2.86
2023-01-21T23:07:55.455Z,2.89
2023-01-21T23:10:22.035Z,2.90
2023-01-21T23:12:48.555Z,2.89
2023-01-21T23:15:15.149Z,2.90
2023-01-21T23:17:41.691Z,2.88
2023-01-21T23:20:09.283Z,2.92
2023-01-21T23:22:35.881Z,2.90
2023-01-21T23:25:02.444Z,2.89
2023-01-21T23:27:28.991Z,2.86
2023-01-21T23:29:55.542Z,2.88
2023-01-21T23:32:22.148Z,2.87
2023-01-21T23:34:48.687Z,2.84
2023-01-21T23:37:15.218Z,2.91
2023-01-21T23:39:42.260Z,2.91
2023-01-21T23:42:08.944Z,2.91
2023-01-21T23:44:35.491Z,2.87
2023-01-21T23:47:02.176Z,2.85
2023-01-21T23:49:29.006Z,2.86
2023-01-21T23:51:55.721Z,2.86
2023-01-21T23:54:22.264Z,2.85
2023-01-21T23:56:48.770Z,2.91
2023-01-21T23:59:15.469Z,2.91
